createdAt,value
2022-09-29T00:00:44.753Z,997.73
2022-09-29T00:01:45.070Z,997.73
2022-09-29T00:02:47.270Z,997.75
2022-09-29T00:03:45.612Z,997.76
2022-09-29T00:04:46.884Z,997.79
2022-09-29T00:05:46.223Z,997.79
2022-09-29T00:06:46.583Z,997.76
2022-09-29T00:07:48.706Z,997.77
2022-09-29T00:08:47.062Z,997.79
2022-09-29T00:09:50.747Z,997.75
2022-09-29T00:10:49.495Z,997.76
2022-09-29T00:11:47.973Z,997.72
2022-09-29T00:12:50.166Z,997.72
2022-09-29T00:13:48.546Z,997.74
2022-09-29T00:14:51.708Z,997.78
2022-09-29T00:15:50.986Z,997.70
2022-09-29T00:16:51.071Z,997.72
2022-09-29T00:18:09.661Z,997.70
2022-09-29T00:18:52.742Z,997.71
2022-09-29T00:19:52.168Z,997.65
2022-09-29T00:20:50.427Z,997.67
2022-09-29T00:21:52.626Z,997.69
2022-09-29T00:22:52.807Z,997.68
2022-09-29T00:23:52.992Z,997.67
2022-09-29T00:24:54.237Z,997.65
2022-09-29T00:25:53.461Z,997.66
2022-09-29T00:26:52.227Z,997.66
2022-09-29T00:27:52.506Z,997.65
2022-09-29T00:28:54.687Z,997.65
2022-09-29T00:29:54.010Z,997.64
2022-09-29T00:30:55.238Z,997.66
2022-09-29T00:31:53.679Z,997.62
2022-09-29T00:33:50.816Z,997.64
2022-09-29T00:34:51.245Z,997.61
2022-09-29T00:35:53.301Z,997.60
2022-09-29T00:36:54.531Z,997.61
2022-09-29T00:37:51.972Z,997.60
2022-09-29T00:38:55.712Z,997.56
2022-09-29T00:39:53.571Z,997.56
2022-09-29T00:40:52.961Z,997.59
2022-09-29T00:41:56.107Z,997.56
2022-09-29T00:42:53.491Z,997.57
2022-09-29T00:43:53.774Z,997.54
2022-09-29T00:44:56.956Z,997.57
2022-09-29T00:45:54.430Z,997.59
2022-09-29T00:46:56.531Z,997.56
2022-09-29T00:47:54.884Z,997.56
2022-09-29T00:48:55.166Z,997.53
2022-09-29T00:49:55.466Z,997.49
2022-09-29T00:50:57.818Z,997.53
2022-09-29T00:51:57.823Z,997.50
2022-09-29T00:52:56.301Z,997.51
2022-09-29T00:53:56.596Z,997.53
2022-09-29T00:54:57.915Z,997.53
2022-09-29T00:55:57.123Z,997.55
2022-09-29T00:56:59.315Z,997.53
2022-09-29T00:58:00.449Z,997.53
2022-09-29T00:58:57.934Z,997.54
2022-09-29T00:59:59.188Z,997.55
2022-09-29T01:00:58.592Z,997.56
2022-09-29T01:01:58.947Z,997.54
2022-09-29T01:03:01.997Z,997.54
2022-09-29T01:04:01.219Z,997.57
2022-09-29T01:05:00.800Z,997.57
2022-09-29T01:06:00.181Z,997.57
2022-09-29T01:07:00.469Z,997.54
2022-09-29T01:08:02.667Z,997.54
2022-09-29T01:09:02.854Z,997.56
2022-09-29T01:10:02.308Z,997.57
2022-09-29T01:11:01.659Z,997.53
2022-09-29T01:12:01.945Z,997.59
2022-09-29T01:13:04.136Z,997.53
2022-09-29T01:14:04.323Z,997.56
2022-09-29T01:15:05.489Z,997.56
2022-09-29T01:16:03.167Z,997.57
2022-09-29T01:17:03.464Z,997.54
2022-09-29T01:18:05.655Z,997.56
2022-09-29T01:19:04.850Z,997.59
2022-09-29T01:20:05.415Z,997.56
2022-09-29T01:21:06.558Z,997.59
2022-09-29T01:22:06.745Z,997.56
2022-09-29T01:23:06.918Z,997.58
2022-09-29T01:24:07.104Z,997.56
2022-09-29T01:25:07.320Z,997.56
2022-09-29T01:26:08.058Z,997.56
2022-09-29T01:27:09.268Z,997.53
2022-09-29T01:28:08.683Z,997.56
2022-09-29T01:29:08.612Z,997.56
2022-09-29T01:30:08.282Z,997.56
2022-09-29T01:31:08.516Z,997.56
2022-09-29T01:32:09.651Z,997.56
2022-09-29T01:33:09.836Z,997.58
2022-09-29T01:34:10.031Z,997.58
2022-09-29T01:35:10.571Z,997.61
2022-09-29T01:36:09.924Z,997.60
2022-09-29T01:37:11.117Z,997.66
2022-09-29T01:38:11.300Z,997.63
2022-09-29T01:39:11.538Z,997.58
2022-09-29T01:40:12.630Z,997.56
2022-09-29T01:41:12.361Z,997.62
2022-09-29T01:42:10.733Z,997.57
2022-09-29T01:43:11.005Z,997.62
2022-09-29T01:44:13.192Z,997.60
2022-09-29T01:45:12.522Z,997.58
2022-09-29T01:46:13.859Z,997.61
2022-09-29T01:47:12.190Z,997.60
2022-09-29T01:48:12.477Z,997.58
2022-09-29T01:49:14.658Z,997.61
2022-09-29T01:50:15.862Z,997.65
2022-09-29T01:51:15.083Z,997.63
2022-09-29T01:52:13.691Z,997.58
2022-09-29T01:53:14.002Z,997.61
2022-09-29T01:54:16.239Z,997.57
2022-09-29T01:55:17.344Z,997.55
2022-09-29T01:56:14.865Z,997.58
2022-09-29T01:57:15.171Z,997.60
2022-09-29T01:58:15.494Z,997.56
2022-09-29T01:59:17.631Z,997.60
2022-09-29T02:00:17.025Z,997.60
2022-09-29T02:01:18.305Z,997.58
2022-09-29T02:02:16.603Z,997.59
2022-09-29T02:03:16.848Z,997.58
2022-09-29T02:04:17.161Z,997.58
2022-09-29T02:05:20.312Z,997.62
2022-09-29T02:06:17.704Z,997.61
2022-09-29T02:07:19.874Z,997.62
2022-09-29T02:08:18.242Z,997.62
2022-09-29T02:09:20.428Z,997.62
2022-09-29T02:10:19.787Z,997.61
2022-09-29T02:11:21.030Z,997.63
2022-09-29T02:12:19.392Z,997.64
2022-09-29T02:13:19.691Z,997.67
2022-09-29T02:14:21.858Z,997.64
2022-09-29T02:15:23.518Z,997.68
2022-09-29T02:16:20.557Z,997.67
2022-09-29T02:17:22.750Z,997.68
2022-09-29T02:18:21.125Z,997.67
2022-09-29T02:19:23.300Z,997.69
2022-09-29T02:20:23.566Z,997.67
2022-09-29T02:21:21.935Z,997.66
2022-09-29T02:22:22.223Z,997.68
2022-09-29T02:23:24.410Z,997.64
2022-09-29T02:24:24.614Z,997.61
2022-09-29T02:25:25.786Z,997.70
2022-09-29T02:26:23.426Z,997.67
2022-09-29T02:27:23.706Z,997.64
2022-09-29T02:28:25.898Z,997.63
2022-09-29T02:29:26.084Z,997.60
2022-09-29T02:30:25.548Z,997.61
2022-09-29T02:31:24.961Z,997.60
2022-09-29T02:32:25.118Z,997.61
2022-09-29T02:33:25.405Z,997.64
2022-09-29T02:34:27.013Z,997.59
2022-09-29T02:35:26.996Z,997.62
2022-09-29T02:36:26.337Z,997.63
2022-09-29T02:37:26.612Z,997.63
2022-09-29T02:38:26.893Z,997.63
2022-09-29T02:39:29.076Z,997.64
2022-09-29T02:40:29.483Z,997.64
2022-09-29T02:41:28.619Z,997.63
2022-09-29T02:42:27.962Z,997.62
2022-09-29T02:43:28.242Z,997.66
2022-09-29T02:44:30.434Z,997.65
2022-09-29T02:45:31.620Z,997.66
2022-09-29T02:46:29.095Z,997.64
2022-09-29T02:47:29.364Z,997.65
2022-09-29T02:48:29.644Z,997.62
2022-09-29T02:49:32.779Z,997.63
2022-09-29T02:50:32.029Z,997.62
2022-09-29T02:51:32.220Z,997.64
2022-09-29T02:52:30.702Z,997.63
2022-09-29T02:53:32.006Z,997.64
2022-09-29T02:54:34.118Z,997.63
2022-09-29T02:55:33.372Z,997.61
2022-09-29T02:56:32.738Z,997.59
2022-09-29T02:57:34.149Z,997.61
2022-09-29T02:58:33.320Z,997.60
2022-09-29T02:59:34.575Z,997.61
2022-09-29T03:00:34.810Z,997.60
2022-09-29T03:01:34.220Z,997.58
2022-09-29T03:02:34.467Z,997.58
2022-09-29T03:03:35.791Z,997.57
2022-09-29T03:04:35.042Z,997.63
2022-09-29T03:06:53.564Z,997.53
2022-09-29T03:07:50.447Z,997.57
2022-09-29T03:08:50.734Z,997.55
2022-09-29T03:09:51.919Z,997.56
2022-09-29T03:10:51.267Z,997.56
2022-09-29T03:11:54.009Z,997.57
2022-09-29T03:12:51.878Z,997.54
2022-09-29T03:13:52.154Z,997.55
2022-09-29T03:14:54.354Z,997.52
2022-09-29T03:15:54.556Z,997.54
2022-09-29T03:16:54.767Z,997.53
2022-09-29T03:17:54.285Z,997.50
2022-09-29T03:18:53.614Z,997.52
2022-09-29T03:19:53.894Z,997.49
2022-09-29T03:20:56.084Z,997.50
2022-09-29T03:21:54.475Z,997.52
2022-09-29T03:22:54.758Z,997.48
2022-09-29T03:23:57.677Z,997.49
2022-09-29T03:24:56.232Z,997.49
2022-09-29T03:25:57.408Z,997.51
2022-09-29T03:26:58.608Z,997.50
2022-09-29T03:27:58.332Z,997.50
2022-09-29T03:28:58.485Z,997.46
2022-09-29T03:29:58.670Z,997.49
2022-09-29T03:30:57.281Z,997.44
2022-09-29T03:32:00.450Z,997.48
2022-09-29T03:32:57.837Z,997.49
2022-09-29T03:33:58.131Z,997.49
2022-09-29T03:34:58.420Z,997.48
2022-09-29T03:36:00.598Z,997.46
2022-09-29T03:36:59.875Z,997.44
2022-09-29T03:38:01.226Z,997.44
2022-09-29T03:38:59.478Z,997.46
2022-09-29T03:39:59.761Z,997.48
2022-09-29T03:41:02.039Z,997.45
2022-09-29T03:42:03.102Z,997.50
2022-09-29T03:43:00.731Z,997.48
2022-09-29T03:44:02.923Z,997.50
2022-09-29T03:45:01.290Z,997.52
2022-09-29T03:46:03.520Z,997.51
2022-09-29T03:47:04.615Z,997.53
2022-09-29T03:48:03.846Z,997.53
2022-09-29T03:49:05.512Z,997.54
2022-09-29T03:50:02.887Z,997.54
2022-09-29T03:51:03.167Z,997.59
2022-09-29T03:52:03.623Z,997.58
2022-09-29T03:53:05.791Z,997.58
2022-09-29T03:54:04.028Z,997.60
2022-09-29T03:55:06.227Z,997.57
2022-09-29T03:56:06.415Z,997.58
2022-09-29T03:57:05.903Z,997.59
2022-09-29T03:58:07.131Z,997.60
2022-09-29T03:59:05.380Z,997.57
2022-09-29T04:00:05.669Z,997.56
2022-09-29T04:01:07.925Z,997.63
2022-09-29T04:02:06.523Z,997.59
2022-09-29T04:03:06.614Z,997.59
2022-09-29T04:04:07.779Z,997.66
2022-09-29T04:05:07.140Z,997.64
2022-09-29T04:06:09.333Z,997.63
2022-09-29T04:07:07.694Z,997.68
2022-09-29T04:08:07.986Z,997.63
2022-09-29T04:09:09.090Z,997.60
2022-09-29T04:10:09.507Z,997.66
2022-09-29T04:11:10.861Z,997.65
2022-09-29T04:12:09.104Z,997.66
2022-09-29T04:13:11.260Z,997.66
2022-09-29T04:14:10.658Z,997.65
2022-09-29T04:15:13.312Z,997.67
2022-09-29T04:16:10.247Z,997.70
2022-09-29T04:17:12.379Z,997.74
2022-09-29T04:18:10.750Z,997.70
2022-09-29T04:19:11.033Z,997.67
2022-09-29T04:20:14.185Z,997.65
2022-09-29T04:21:13.461Z,997.64
2022-09-29T04:22:11.826Z,997.65
2022-09-29T04:23:12.105Z,997.62
2022-09-29T04:24:12.394Z,997.64
2022-09-29T04:25:12.762Z,997.66
2022-09-29T04:26:12.906Z,997.65
2022-09-29T04:27:15.086Z,997.69
2022-09-29T04:28:13.453Z,997.67
2022-09-29T04:29:13.735Z,997.66
2022-09-29T04:30:15.571Z,997.67
2022-09-29T04:31:14.376Z,997.65
2022-09-29T04:32:16.483Z,997.67
2022-09-29T04:33:14.993Z,997.70
2022-09-29T04:34:16.379Z,997.68
2022-09-29T04:35:16.579Z,997.67
2022-09-29T04:36:17.918Z,997.70
2022-09-29T04:37:17.975Z,997.67
2022-09-29T04:38:16.345Z,997.68
2022-09-29T04:39:16.720Z,997.65
2022-09-29T04:40:17.990Z,997.64
2022-09-29T04:41:17.099Z,997.63
2022-09-29T04:42:20.726Z,997.66
2022-09-29T04:43:17.624Z,997.67
2022-09-29T04:44:17.913Z,997.67
2022-09-29T04:45:20.230Z,997.66
2022-09-29T04:46:18.501Z,997.67
2022-09-29T04:47:20.806Z,997.63
2022-09-29T04:48:21.809Z,997.69
2022-09-29T04:49:19.456Z,997.66
2022-09-29T04:50:22.488Z,997.69
2022-09-29T04:51:20.673Z,997.71
2022-09-29T04:52:22.036Z,997.68
2022-09-29T04:53:23.185Z,997.68
2022-09-29T04:54:23.368Z,997.65
2022-09-29T04:55:21.824Z,997.61
2022-09-29T04:56:22.241Z,997.65
2022-09-29T04:57:22.399Z,997.63
2022-09-29T04:58:22.064Z,997.61
2022-09-29T04:59:22.976Z,997.60
2022-09-29T05:00:25.359Z,997.64
2022-09-29T05:01:23.624Z,997.65
2022-09-29T05:02:24.603Z,997.65
2022-09-29T05:03:23.318Z,997.72
2022-09-29T05:04:23.617Z,997.78
2022-09-29T05:05:27.269Z,997.79
2022-09-29T05:06:24.163Z,997.79
2022-09-29T05:07:26.334Z,997.75
2022-09-29T05:08:24.709Z,997.82
2022-09-29T05:09:26.441Z,997.83
2022-09-29T05:10:27.269Z,997.83
2022-09-29T05:11:25.517Z,997.85
2022-09-29T05:12:25.821Z,997.83
2022-09-29T05:13:26.117Z,997.86
2022-09-29T05:14:26.447Z,997.82
2022-09-29T05:15:28.638Z,997.82
2022-09-29T05:16:27.058Z,997.83
2022-09-29T05:17:27.344Z,997.85
2022-09-29T05:18:27.666Z,997.84
2022-09-29T05:19:29.847Z,997.82
2022-09-29T05:20:38.513Z,997.78
2022-09-29T05:21:30.434Z,997.81
2022-09-29T05:22:30.617Z,997.80
2022-09-29T05:23:29.131Z,997.80
2022-09-29T05:24:29.448Z,997.80
2022-09-29T05:25:31.615Z,997.78
2022-09-29T05:26:31.807Z,997.80
2022-09-29T05:27:30.316Z,997.82
2022-09-29T05:28:33.453Z,997.83
2022-09-29T05:29:30.857Z,997.85
2022-09-29T05:30:33.043Z,997.86
2022-09-29T05:31:33.247Z,997.91
2022-09-29T05:32:33.383Z,997.98
2022-09-29T05:33:32.941Z,998.03
2022-09-29T05:34:34.074Z,998.06
2022-09-29T05:35:34.249Z,998.09
2022-09-29T05:36:34.436Z,998.04
2022-09-29T05:37:36.574Z,998.08
2022-09-29T05:38:33.482Z,998.10
2022-09-29T05:39:35.642Z,998.11
2022-09-29T05:40:35.847Z,998.10
2022-09-29T05:41:35.977Z,998.10
2022-09-29T05:42:36.261Z,998.12
2022-09-29T05:43:34.895Z,998.08
2022-09-29T05:44:37.052Z,998.08
2022-09-29T05:45:37.296Z,998.08
2022-09-29T05:46:37.413Z,998.06
2022-09-29T05:47:36.039Z,998.02
2022-09-29T05:48:37.222Z,998.05
2022-09-29T05:49:36.585Z,998.00
2022-09-29T05:50:38.741Z,998.01
2022-09-29T05:51:38.918Z,998.04
2022-09-29T05:52:37.462Z,998.07
2022-09-29T05:53:37.771Z,998.07
2022-09-29T05:54:38.942Z,998.08
2022-09-29T05:55:40.293Z,998.10
2022-09-29T05:56:44.499Z,998.11
2022-09-29T05:57:38.855Z,998.14
2022-09-29T05:58:39.177Z,998.16
2022-09-29T05:59:39.500Z,998.16
2022-09-29T06:00:39.822Z,998.14
2022-09-29T06:01:41.993Z,998.17
2022-09-29T06:02:40.437Z,998.21
2022-09-29T06:03:40.713Z,998.17
2022-09-29T06:04:44.347Z,998.15
2022-09-29T06:05:42.358Z,998.15
2022-09-29T06:06:43.592Z,998.16
2022-09-29T06:07:41.853Z,998.13
2022-09-29T06:08:42.170Z,998.17
2022-09-29T06:09:43.395Z,998.15
2022-09-29T06:10:42.807Z,998.17
2022-09-29T06:11:45.009Z,998.16
2022-09-29T06:12:43.266Z,998.16
2022-09-29T06:13:43.576Z,998.21
2022-09-29T06:14:44.703Z,998.23
2022-09-29T06:15:44.217Z,998.21
2022-09-29T06:16:46.502Z,998.21
2022-09-29T06:17:44.859Z,998.21
2022-09-29T06:18:45.173Z,998.26
2022-09-29T06:19:46.570Z,998.30
2022-09-29T06:20:45.803Z,998.29
2022-09-29T06:21:47.979Z,998.31
2022-09-29T06:22:46.362Z,998.29
2022-09-29T06:23:46.669Z,998.33
2022-09-29T06:24:47.978Z,998.38
2022-09-29T06:25:47.323Z,998.35
2022-09-29T06:26:49.505Z,998.35
2022-09-29T06:27:47.914Z,998.39
2022-09-29T06:28:48.228Z,998.39
2022-09-29T06:29:51.397Z,998.37
2022-09-29T06:30:48.833Z,998.40
2022-09-29T06:31:51.104Z,998.38
2022-09-29T06:32:49.827Z,998.39
2022-09-29T06:33:49.829Z,998.40
2022-09-29T06:34:50.978Z,998.37
2022-09-29T06:35:52.357Z,998.41
2022-09-29T06:36:52.546Z,998.43
2022-09-29T06:37:52.696Z,998.41
2022-09-29T06:38:51.362Z,998.36
2022-09-29T06:39:52.660Z,998.36
2022-09-29T06:40:51.980Z,998.38
2022-09-29T06:41:55.607Z,998.33
2022-09-29T06:42:52.427Z,998.34
2022-09-29T06:43:53.441Z,998.36
2022-09-29T06:44:53.932Z,998.33
2022-09-29T06:45:53.213Z,998.29
2022-09-29T06:46:55.380Z,998.31
2022-09-29T06:47:53.778Z,998.29
2022-09-29T06:48:54.120Z,998.36
2022-09-29T06:50:07.045Z,998.34
2022-09-29T06:51:07.676Z,998.33
2022-09-29T06:51:57.901Z,998.33
2022-09-29T06:53:03.890Z,998.28
2022-09-29T06:54:09.566Z,998.31
2022-09-29T06:54:59.642Z,998.32
2022-09-29T06:55:57.848Z,998.31
2022-09-29T06:56:58.028Z,998.28
2022-09-29T06:58:01.280Z,998.27
2022-09-29T06:58:59.964Z,998.29
2022-09-29T06:59:58.383Z,998.26
2022-09-29T07:00:59.604Z,998.33
2022-09-29T07:01:59.813Z,998.28
2022-09-29T07:02:59.042Z,998.31
2022-09-29T07:03:59.393Z,998.33
2022-09-29T07:04:59.762Z,998.28
2022-09-29T07:06:19.655Z,998.25
2022-09-29T07:07:02.170Z,998.30
2022-09-29T07:08:01.446Z,998.26
2022-09-29T07:09:00.789Z,998.26
2022-09-29T07:10:03.603Z,998.30
2022-09-29T07:11:02.347Z,998.30
2022-09-29T07:12:00.762Z,998.33
2022-09-29T07:13:02.953Z,998.35
2022-09-29T07:14:01.373Z,998.35
2022-09-29T07:15:05.022Z,998.35
2022-09-29T07:16:01.949Z,998.32
2022-09-29T07:17:03.048Z,998.33
2022-09-29T07:18:04.209Z,998.35
2022-09-29T07:19:02.754Z,998.34
2022-09-29T07:20:03.984Z,998.36
2022-09-29T07:21:03.263Z,998.35
2022-09-29T07:22:05.445Z,998.35
2022-09-29T07:23:03.749Z,998.36
2022-09-29T07:24:03.971Z,998.40
2022-09-29T07:25:07.664Z,998.41
2022-09-29T07:26:04.590Z,998.40
2022-09-29T07:27:06.767Z,998.43
2022-09-29T07:28:06.953Z,998.40
2022-09-29T07:29:05.492Z,998.40
2022-09-29T07:30:08.657Z,998.42
2022-09-29T07:31:14.134Z,998.38
2022-09-29T07:32:19.220Z,998.44
2022-09-29T07:33:07.685Z,998.39
2022-09-29T07:34:08.898Z,998.42
2022-09-29T07:35:08.186Z,998.41
2022-09-29T07:36:07.462Z,998.45
2022-09-29T07:37:09.647Z,998.40
2022-09-29T07:38:09.836Z,998.40
2022-09-29T07:39:08.374Z,998.43
2022-09-29T07:40:10.607Z,998.39
2022-09-29T07:41:08.928Z,998.41
2022-09-29T07:42:11.086Z,998.41
2022-09-29T07:43:09.384Z,998.44
2022-09-29T07:44:11.677Z,998.41
2022-09-29T07:45:12.696Z,998.44
2022-09-29T07:46:10.136Z,998.40
2022-09-29T07:47:12.308Z,998.41
2022-09-29T07:48:10.608Z,998.42
2022-09-29T07:49:10.945Z,998.47
2022-09-29T07:50:14.110Z,998.49
2022-09-29T07:51:13.344Z,998.41
2022-09-29T07:52:13.528Z,998.46
2022-09-29T07:53:13.713Z,998.50
2022-09-29T07:54:14.399Z,998.53
2022-09-29T07:55:13.849Z,998.50
2022-09-29T07:56:15.309Z,998.53
2022-09-29T07:57:13.375Z,998.53
2022-09-29T07:58:13.588Z,998.56
2022-09-29T07:59:13.937Z,998.54
2022-09-29T08:00:14.370Z,998.51
2022-09-29T08:01:16.639Z,998.56
2022-09-29T08:02:14.978Z,998.55
2022-09-29T08:03:15.181Z,998.57
2022-09-29T08:04:15.551Z,998.59
2022-09-29T08:05:18.671Z,998.61
2022-09-29T08:06:17.902Z,998.66
2022-09-29T08:07:16.640Z,998.66
2022-09-29T08:08:19.639Z,998.67
2022-09-29T08:09:16.945Z,998.62
2022-09-29T08:10:18.291Z,998.65
2022-09-29T08:11:29.184Z,998.65
2022-09-29T08:12:18.938Z,998.69
2022-09-29T08:13:21.530Z,998.73
2022-09-29T08:14:18.333Z,998.73
2022-09-29T08:15:22.015Z,998.73
2022-09-29T08:16:20.757Z,998.75
2022-09-29T08:17:19.275Z,998.73
2022-09-29T08:18:20.516Z,998.72
2022-09-29T08:19:21.873Z,998.74
2022-09-29T08:20:21.089Z,998.74
2022-09-29T08:21:22.465Z,998.77
2022-09-29T08:22:20.727Z,998.75
2022-09-29T08:23:21.077Z,998.82
2022-09-29T08:24:24.732Z,998.78
2022-09-29T08:25:22.517Z,998.78
2022-09-29T08:26:37.505Z,998.80
2022-09-29T08:27:23.058Z,998.82
2022-09-29T08:28:30.191Z,998.85
2022-09-29T08:29:25.820Z,998.82
2022-09-29T08:30:26.222Z,998.85
2022-09-29T08:31:25.006Z,998.83
2022-09-29T08:32:23.263Z,998.84
2022-09-29T08:33:25.447Z,998.84
2022-09-29T08:34:23.858Z,998.84
2022-09-29T08:35:27.513Z,998.87
2022-09-29T08:36:24.328Z,998.91
2022-09-29T08:37:28.645Z,998.91
2022-09-29T08:38:24.946Z,998.96
2022-09-29T08:39:27.091Z,998.95
2022-09-29T08:40:26.536Z,998.91
2022-09-29T08:41:25.784Z,998.91
2022-09-29T08:42:29.223Z,998.93
2022-09-29T08:43:34.180Z,998.93
2022-09-29T08:44:37.133Z,998.96
2022-09-29T08:45:28.854Z,998.97
2022-09-29T08:46:35.134Z,998.99
2022-09-29T08:47:45.140Z,999.00
2022-09-29T08:48:29.665Z,999.02
2022-09-29T08:49:33.399Z,999.03
2022-09-29T08:50:31.322Z,999.02
2022-09-29T08:51:40.566Z,999.01
2022-09-29T08:52:37.902Z,999.01
2022-09-29T08:53:30.983Z,999.01
2022-09-29T08:54:38.659Z,998.99
2022-09-29T08:55:32.617Z,999.01
2022-09-29T08:56:30.209Z,998.99
2022-09-29T08:57:33.698Z,998.99
2022-09-29T08:58:31.524Z,998.97
2022-09-29T08:59:31.869Z,998.96
2022-09-29T09:00:31.270Z,998.98
2022-09-29T09:01:34.947Z,999.00
2022-09-29T09:02:33.719Z,998.96
2022-09-29T09:03:33.828Z,998.98
2022-09-29T09:04:33.249Z,998.96
2022-09-29T09:05:34.597Z,998.98
2022-09-29T09:06:34.724Z,998.96
2022-09-29T09:07:34.968Z,998.94
2022-09-29T09:08:34.191Z,998.97
2022-09-29T09:09:35.568Z,998.96
2022-09-29T09:10:35.777Z,998.99
2022-09-29T09:11:34.315Z,998.96
2022-09-29T09:12:36.508Z,999.00
2022-09-29T09:13:34.916Z,998.95
2022-09-29T09:14:35.096Z,999.02
2022-09-29T09:15:36.291Z,999.02
2022-09-29T09:16:35.913Z,999.05
2022-09-29T09:17:37.846Z,999.01
2022-09-29T09:18:38.025Z,999.04
2022-09-29T09:19:38.224Z,999.05
2022-09-29T09:20:38.856Z,999.04
2022-09-29T09:21:39.014Z,999.08
2022-09-29T09:23:39.608Z,999.08
2022-09-29T09:24:39.775Z,999.02
2022-09-29T09:25:39.957Z,999.03
2022-09-29T09:26:38.631Z,999.04
2022-09-29T09:27:40.816Z,999.02
2022-09-29T09:28:39.117Z,999.02
2022-09-29T09:29:39.361Z,999.05
2022-09-29T09:30:41.605Z,999.02
2022-09-29T09:31:39.881Z,999.04
2022-09-29T09:32:40.132Z,999.05
2022-09-29T09:33:42.297Z,999.04
2022-09-29T09:34:45.143Z,999.06
2022-09-29T09:35:55.284Z,999.05
2022-09-29T09:36:42.168Z,999.03
2022-09-29T09:37:43.348Z,999.05
2022-09-29T09:38:43.513Z,999.04
2022-09-29T09:39:43.981Z,998.99
2022-09-29T09:40:44.377Z,999.07
2022-09-29T09:41:44.571Z,999.01
2022-09-29T09:42:42.995Z,998.98
2022-09-29T09:43:43.231Z,999.00
2022-09-29T09:44:46.908Z,998.99
2022-09-29T09:45:43.773Z,999.01
2022-09-29T09:46:45.933Z,998.99
2022-09-29T09:47:46.101Z,998.99
2022-09-29T09:48:44.644Z,999.02
2022-09-29T09:49:46.894Z,999.00
2022-09-29T09:50:45.324Z,999.01
2022-09-29T09:51:47.518Z,998.97
2022-09-29T09:52:48.667Z,998.96
2022-09-29T09:53:46.099Z,999.01
2022-09-29T09:54:49.287Z,998.97
2022-09-29T09:55:48.517Z,999.01
2022-09-29T09:56:46.933Z,999.02
2022-09-29T09:57:50.576Z,999.02
2022-09-29T09:58:49.347Z,998.98
2022-09-29T09:59:50.418Z,999.02
2022-09-29T10:00:48.105Z,999.03
2022-09-29T10:01:50.043Z,999.01
2022-09-29T10:02:50.280Z,999.02
2022-09-29T10:03:48.679Z,999.02
2022-09-29T10:04:50.079Z,999.07
2022-09-29T10:05:49.323Z,999.11
2022-09-29T10:06:51.492Z,999.02
2022-09-29T10:07:51.663Z,999.05
2022-09-29T10:08:51.167Z,999.13
2022-09-29T10:09:51.513Z,999.14
2022-09-29T10:10:58.494Z,999.12
2022-09-29T10:11:53.841Z,999.14
2022-09-29T10:12:51.399Z,999.14
2022-09-29T10:13:53.584Z,999.12
2022-09-29T10:14:52.900Z,999.14
2022-09-29T10:15:52.177Z,999.19
2022-09-29T10:16:54.434Z,999.22
2022-09-29T10:17:52.817Z,999.17
2022-09-29T10:18:55.015Z,999.18
2022-09-29T10:19:54.463Z,999.21
2022-09-29T10:20:53.767Z,999.18
2022-09-29T10:21:55.972Z,999.20
2022-09-29T10:22:56.137Z,999.18
2022-09-29T10:23:54.764Z,999.20
2022-09-29T10:24:55.776Z,999.20
2022-09-29T10:25:55.317Z,999.24
2022-09-29T10:26:57.500Z,999.25
2022-09-29T10:27:55.917Z,999.19
2022-09-29T10:28:56.158Z,999.19
2022-09-29T10:29:59.300Z,999.23
2022-09-29T10:30:57.047Z,999.25
2022-09-29T10:31:58.776Z,999.22
2022-09-29T10:32:58.965Z,999.27
2022-09-29T10:33:57.505Z,999.26
2022-09-29T10:34:58.657Z,999.30
2022-09-29T10:35:58.181Z,999.33
2022-09-29T10:37:00.394Z,999.30
2022-09-29T10:37:58.812Z,999.28
2022-09-29T10:39:00.908Z,999.28
2022-09-29T10:40:02.360Z,999.28
2022-09-29T10:40:59.798Z,999.33
2022-09-29T10:42:03.432Z,999.30
2022-09-29T10:43:00.471Z,999.32
2022-09-29T10:44:03.552Z,999.32
2022-09-29T10:45:04.310Z,999.29
2022-09-29T10:46:02.271Z,999.32
2022-09-29T10:47:04.381Z,999.30
2022-09-29T10:48:04.561Z,999.29
2022-09-29T10:49:02.951Z,999.34
2022-09-29T10:50:02.432Z,999.32
2022-09-29T10:51:03.544Z,999.36
2022-09-29T10:52:04.858Z,999.33
2022-09-29T10:53:04.232Z,999.35
2022-09-29T10:54:03.515Z,999.36
2022-09-29T10:55:04.672Z,999.37
2022-09-29T10:56:04.088Z,999.39
2022-09-29T10:57:04.389Z,999.41
2022-09-29T10:58:06.572Z,999.42
2022-09-29T10:59:06.144Z,999.42
2022-09-29T11:00:06.104Z,999.37
2022-09-29T11:01:07.375Z,999.45
2022-09-29T11:02:05.681Z,999.37
2022-09-29T11:03:05.881Z,999.39
2022-09-29T11:04:08.189Z,999.37
2022-09-29T11:05:07.347Z,999.39
2022-09-29T11:06:08.576Z,999.37
2022-09-29T11:07:08.770Z,999.36
2022-09-29T11:08:07.203Z,999.38
2022-09-29T11:09:09.410Z,999.33
2022-09-29T11:10:10.552Z,999.31
2022-09-29T11:11:08.002Z,999.38
2022-09-29T11:12:09.558Z,999.37
2022-09-29T11:13:09.431Z,999.42
2022-09-29T11:14:10.625Z,999.42
2022-09-29T11:15:11.201Z,999.42
2022-09-29T11:16:10.337Z,999.42
2022-09-29T11:17:10.727Z,999.41
2022-09-29T11:18:11.949Z,999.41
2022-09-29T11:19:11.073Z,999.43
2022-09-29T11:20:11.499Z,999.40
2022-09-29T11:21:12.745Z,999.38
2022-09-29T11:22:11.046Z,999.47
2022-09-29T11:23:12.239Z,999.46
2022-09-29T11:24:11.600Z,999.47
2022-09-29T11:25:13.298Z,999.45
2022-09-29T11:26:12.262Z,999.49
2022-09-29T11:27:14.289Z,999.45
2022-09-29T11:28:14.462Z,999.49
2022-09-29T11:29:14.655Z,999.47
2022-09-29T11:30:14.679Z,999.52
2022-09-29T11:31:15.443Z,999.50
2022-09-29T11:32:17.079Z,999.48
2022-09-29T11:33:15.813Z,999.50
2022-09-29T11:34:16.073Z,999.49
2022-09-29T11:35:16.218Z,999.52
2022-09-29T11:36:18.381Z,999.50
2022-09-29T11:37:15.207Z,999.44
2022-09-29T11:38:16.416Z,999.50
2022-09-29T11:39:15.730Z,999.52
2022-09-29T11:40:15.951Z,999.50
2022-09-29T11:41:19.660Z,999.45
2022-09-29T11:42:16.570Z,999.47
2022-09-29T11:43:20.155Z,999.47
2022-09-29T11:44:17.190Z,999.48
2022-09-29T11:46:19.137Z,999.53
2022-09-29T11:47:17.909Z,999.49
2022-09-29T11:48:20.096Z,999.47
2022-09-29T11:49:20.394Z,999.49
2022-09-29T11:50:18.688Z,999.52
2022-09-29T11:51:20.918Z,999.54
2022-09-29T11:52:19.242Z,999.55
2022-09-29T11:53:21.413Z,999.54
2022-09-29T11:54:21.595Z,999.53
2022-09-29T11:55:21.779Z,999.54
2022-09-29T11:56:22.962Z,999.56
2022-09-29T11:57:22.202Z,999.54
2022-09-29T11:58:20.994Z,999.55
2022-09-29T11:59:21.317Z,999.56
2022-09-29T12:00:23.409Z,999.55
2022-09-29T12:01:22.848Z,999.60
2022-09-29T12:02:22.230Z,999.57
2022-09-29T12:03:22.553Z,999.55
2022-09-29T12:04:22.783Z,999.58
2022-09-29T12:05:25.084Z,999.56
2022-09-29T12:06:24.238Z,999.54
2022-09-29T12:07:23.532Z,999.55
2022-09-29T12:08:23.763Z,999.55
2022-09-29T12:09:24.145Z,999.54
2022-09-29T12:10:26.552Z,999.49
2022-09-29T12:11:47.475Z,999.53
2022-09-29T12:12:25.824Z,999.53
2022-09-29T12:13:25.209Z,999.48
2022-09-29T12:14:25.350Z,999.49
2022-09-29T12:15:27.539Z,999.49
2022-09-29T12:16:28.789Z,999.50
2022-09-29T12:17:26.069Z,999.48
2022-09-29T12:18:28.247Z,999.52
2022-09-29T12:19:26.567Z,999.53
2022-09-29T12:20:28.742Z,999.52
2022-09-29T12:21:30.421Z,999.49
2022-09-29T12:22:27.370Z,999.54
2022-09-29T12:23:28.480Z,999.53
2022-09-29T12:24:27.917Z,999.56
2022-09-29T12:25:30.091Z,999.53
2022-09-29T12:26:31.747Z,999.51
2022-09-29T12:27:28.728Z,999.53
2022-09-29T12:28:28.968Z,999.54
2022-09-29T12:29:29.193Z,999.53
2022-09-29T12:30:31.401Z,999.50
2022-09-29T12:31:30.527Z,999.56
2022-09-29T12:32:29.951Z,999.61
2022-09-29T12:33:30.188Z,999.53
2022-09-29T12:34:32.341Z,999.59
2022-09-29T12:35:32.542Z,999.58
2022-09-29T12:36:32.096Z,999.60